sensor_id;sensor_type;location;lat;lon;timestamp;temperature;humidity
25092;DHT22;13082;52.374;4.946;2022-10-16T00:01:24;14.20;99.90
25092;DHT22;13082;52.374;4.946;2022-10-16T00:03:51;14.20;99.90
25092;DHT22;13082;52.374;4.946;2022-10-16T00:06:18;14.20;99.90
25092;DHT22;13082;52.374;4.946;2022-10-16T00:08:45;14.20;99.90
25092;DHT22;13082;52.374;4.946;2022-10-16T00:11:21;14.10;99.90
25092;DHT22;13082;52.374;4.946;2022-10-16T00:13:49;14.20;99.90
25092;DHT22;13082;52.374;4.946;2022-10-16T00:16:15;14.10;99.90
25092;DHT22;13082;52.374;4.946;2022-10-16T00:18:42;14.10;99.90
25092;DHT22;13082;52.374;4.946;2022-10-16T00:21:15;14.10;99.90
25092;DHT22;13082;52.374;4.946;2022-10-16T00:23:41;14.10;99.90
25092;DHT22;13082;52.374;4.946;2022-10-16T00:26:09;14.10;99.90
25092;DHT22;13082;52.374;4.946;2022-10-16T00:28:35;14.10;99.90
25092;DHT22;13082;52.374;4.946;2022-10-16T00:31:09;14.10;99.90
25092;DHT22;13082;52.374;4.946;2022-10-16T00:33:37;14.10;99.90
25092;DHT22;13082;52.374;4.946;2022-10-16T00:36:04;14.10;99.90
25092;DHT22;13082;52.374;4.946;2022-10-16T00:38:31;14.10;99.90
25092;DHT22;13082;52.374;4.946;2022-10-16T00:40:57;14.10;99.90
25092;DHT22;13082;52.374;4.946;2022-10-16T00:43:48;14.10;99.90
25092;DHT22;13082;52.374;4.946;2022-10-16T00:46:26;14.10;99.90
25092;DHT22;13082;52.374;4.946;2022-10-16T00:49:11;14.00;99.90
25092;DHT22;13082;52.374;4.946;2022-10-16T00:54:14;14.00;99.90
25092;DHT22;13082;52.374;4.946;2022-10-16T00:56:42;14.10;99.90
25092;DHT22;13082;52.374;4.946;2022-10-16T00:59:15;14.10;99.90
25092;DHT22;13082;52.374;4.946;2022-10-16T01:01:41;14.10;99.90
25092;DHT22;13082;52.374;4.946;2022-10-16T01:04:07;14.10;99.90
25092;DHT22;13082;52.374;4.946;2022-10-16T01:07:02;14.00;99.90
25092;DHT22;13082;52.374;4.946;2022-10-16T01:10:17;14.00;99.90
25092;DHT22;13082;52.374;4.946;2022-10-16T01:13:06;14.00;99.90
25092;DHT22;13082;52.374;4.946;2022-10-16T01:15:49;14.00;99.90
25092;DHT22;13082;52.374;4.946;2022-10-16T01:18:47;14.00;99.90
25092;DHT22;13082;52.374;4.946;2022-10-16T01:21:41;14.00;99.90
25092;DHT22;13082;52.374;4.946;2022-10-16T01:24:25;13.90;99.90
25092;DHT22;13082;52.374;4.946;2022-10-16T01:33:01;14.00;99.90
25092;DHT22;13082;52.374;4.946;2022-10-16T01:35:38;14.00;99.90
25092;DHT22;13082;52.374;4.946;2022-10-16T01:38:16;14.00;99.90
25092;DHT22;13082;52.374;4.946;2022-10-16T01:40:46;14.00;99.90
25092;DHT22;13082;52.374;4.946;2022-10-16T01:43:25;14.00;99.90
25092;DHT22;13082;52.374;4.946;2022-10-16T01:45:52;14.00;99.90
25092;DHT22;13082;52.374;4.946;2022-10-16T01:48:19;14.00;99.90
25092;DHT22;13082;52.374;4.946;2022-10-16T01:51:01;14.10;99.90
25092;DHT22;13082;52.374;4.946;2022-10-16T01:53:28;14.10;99.90
25092;DHT22;13082;52.374;4.946;2022-10-16T01:55:55;14.00;99.90
25092;DHT22;13082;52.374;4.946;2022-10-16T01:58:25;14.00;99.90
25092;DHT22;13082;52.374;4.946;2022-10-16T02:00:52;14.00;99.90
25092;DHT22;13082;52.374;4.946;2022-10-16T02:03:19;14.00;99.90
25092;DHT22;13082;52.374;4.946;2022-10-16T02:05:51;14.00;99.90
25092;DHT22;13082;52.374;4.946;2022-10-16T02:08:19;14.00;99.90
25092;DHT22;13082;52.374;4.946;2022-10-16T02:10:45;14.00;99.90
25092;DHT22;13082;52.374;4.946;2022-10-16T02:13:17;14.00;99.90
25092;DHT22;13082;52.374;4.946;2022-10-16T02:15:43;13.90;99.90
25092;DHT22;13082;52.374;4.946;2022-10-16T02:18:09;13.90;99.90
25092;DHT22;13082;52.374;4.946;2022-10-16T02:20:59;13.90;99.90
25092;DHT22;13082;52.374;4.946;2022-10-16T02:26:35;13.90;99.90
25092;DHT22;13082;52.374;4.946;2022-10-16T02:29:06;13.90;99.90
25092;DHT22;13082;52.374;4.946;2022-10-16T02:31:35;13.80;99.90
25092;DHT22;13082;52.374;4.946;2022-10-16T02:34:04;13.80;99.90
25092;DHT22;13082;52.374;4.946;2022-10-16T02:36:31;13.80;99.90
25092;DHT22;13082;52.374;4.946;2022-10-16T02:38:58;13.70;99.90
25092;DHT22;13082;52.374;4.946;2022-10-16T02:41:26;13.70;99.90
25092;DHT22;13082;52.374;4.946;2022-10-16T02:43:52;13.70;99.90
25092;DHT22;13082;52.374;4.946;2022-10-16T02:46:19;13.70;99.90
25092;DHT22;13082;52.374;4.946;2022-10-16T02:48:44;13.70;99.90
25092;DHT22;13082;52.374;4.946;2022-10-16T02:51:10;13.60;99.90
25092;DHT22;13082;52.374;4.946;2022-10-16T02:53:35;13.60;99.90
25092;DHT22;13082;52.374;4.946;2022-10-16T02:56:01;13.60;99.90
25092;DHT22;13082;52.374;4.946;2022-10-16T02:58:27;13.60;99.90
25092;DHT22;13082;52.374;4.946;2022-10-16T03:00:52;13.60;99.90
25092;DHT22;13082;52.374;4.946;2022-10-16T03:03:18;13.60;99.90
25092;DHT22;13082;52.374;4.946;2022-10-16T03:05:44;13.50;99.90
25092;DHT22;13082;52.374;4.946;2022-10-16T03:08:11;13.50;99.90
25092;DHT22;13082;52.374;4.946;2022-10-16T03:10:37;13.50;99.90
25092;DHT22;13082;52.374;4.946;2022-10-16T03:13:02;13.50;99.90
25092;DHT22;13082;52.374;4.946;2022-10-16T03:15:28;13.50;99.90
25092;DHT22;13082;52.374;4.946;2022-10-16T03:17:54;13.50;99.90
25092;DHT22;13082;52.374;4.946;2022-10-16T03:20:20;13.50;99.90
25092;DHT22;13082;52.374;4.946;2022-10-16T03:22:46;13.40;99.90
25092;DHT22;13082;52.374;4.946;2022-10-16T03:25:11;13.40;99.90
25092;DHT22;13082;52.374;4.946;2022-10-16T03:27:37;13.50;99.90
25092;DHT22;13082;52.374;4.946;2022-10-16T03:30:03;13.50;99.90
25092;DHT22;13082;52.374;4.946;2022-10-16T03:32:28;13.40;99.90
25092;DHT22;13082;52.374;4.946;2022-10-16T03:34:54;13.40;99.90
25092;DHT22;13082;52.374;4.946;2022-10-16T03:37:21;13.40;99.90
25092;DHT22;13082;52.374;4.946;2022-10-16T03:39:47;13.40;99.90
25092;DHT22;13082;52.374;4.946;2022-10-16T03:42:12;13.40;99.90
25092;DHT22;13082;52.374;4.946;2022-10-16T03:44:38;13.40;99.90
25092;DHT22;13082;52.374;4.946;2022-10-16T03:47:04;13.40;99.90
25092;DHT22;13082;52.374;4.946;2022-10-16T03:49:29;13.40;99.90
25092;DHT22;13082;52.374;4.946;2022-10-16T03:51:55;13.40;99.90
25092;DHT22;13082;52.374;4.946;2022-10-16T03:54:20;13.30;99.90
25092;DHT22;13082;52.374;4.946;2022-10-16T03:56:47;13.40;99.90
25092;DHT22;13082;52.374;4.946;2022-10-16T03:59:13;13.30;99.90
25092;DHT22;13082;52.374;4.946;2022-10-16T04:01:39;13.30;99.90
25092;DHT22;13082;52.374;4.946;2022-10-16T04:04:04;13.30;99.90
25092;DHT22;13082;52.374;4.946;2022-10-16T04:06:30;13.30;99.90
25092;DHT22;13082;52.374;4.946;2022-10-16T04:08:55;13.30;99.90
25092;DHT22;13082;52.374;4.946;2022-10-16T04:11:21;13.30;99.90
25092;DHT22;13082;52.374;4.946;2022-10-16T04:13:47;13.30;99.90
25092;DHT22;13082;52.374;4.946;2022-10-16T04:16:13;13.30;99.90
25092;DHT22;13082;52.374;4.946;2022-10-16T04:18:38;13.30;99.90
25092;DHT22;13082;52.374;4.946;2022-10-16T04:21:05;13.40;99.90
25092;DHT22;13082;52.374;4.946;2022-10-16T04:23:31;13.40;99.90
25092;DHT22;13082;52.374;4.946;2022-10-16T04:25:57;13.40;99.90
25092;DHT22;13082;52.374;4.946;2022-10-16T04:28:23;13.40;99.90
25092;DHT22;13082;52.374;4.946;2022-10-16T04:30:49;13.40;99.90
25092;DHT22;13082;52.374;4.946;2022-10-16T04:33:14;13.40;99.90
25092;DHT22;13082;52.374;4.946;2022-10-16T04:35:40;13.40;99.90
25092;DHT22;13082;52.374;4.946;2022-10-16T04:38:05;13.40;99.90
25092;DHT22;13082;52.374;4.946;2022-10-16T04:40:31;13.40;99.90
25092;DHT22;13082;52.374;4.946;2022-10-16T04:42:58;13.40;99.90
25092;DHT22;13082;52.374;4.946;2022-10-16T04:45:25;13.40;99.90
25092;DHT22;13082;52.374;4.946;2022-10-16T04:47:50;13.40;99.90
25092;DHT22;13082;52.374;4.946;2022-10-16T04:50:16;13.40;99.90
25092;DHT22;13082;52.374;4.946;2022-10-16T04:52:41;13.40;99.90
25092;DHT22;13082;52.374;4.946;2022-10-16T04:55:07;13.30;99.90
25092;DHT22;13082;52.374;4.946;2022-10-16T04:57:33;13.40;99.90
25092;DHT22;13082;52.374;4.946;2022-10-16T04:59:59;13.30;99.90
25092;DHT22;13082;52.374;4.946;2022-10-16T05:02:24;13.40;99.90
25092;DHT22;13082;52.374;4.946;2022-10-16T05:04:50;13.40;99.90
25092;DHT22;13082;52.374;4.946;2022-10-16T05:07:16;13.30;99.90
25092;DHT22;13082;52.374;4.946;2022-10-16T05:09:41;13.30;99.90
25092;DHT22;13082;52.374;4.946;2022-10-16T05:12:07;13.40;99.90
25092;DHT22;13082;52.374;4.946;2022-10-16T05:14:33;13.30;99.90
25092;DHT22;13082;52.374;4.946;2022-10-16T05:17:00;13.30;99.90
25092;DHT22;13082;52.374;4.946;2022-10-16T05:19:25;13.20;99.90
25092;DHT22;13082;52.374;4.946;2022-10-16T05:21:51;13.20;99.90
25092;DHT22;13082;52.374;4.946;2022-10-16T05:24:17;13.20;99.90
25092;DHT22;13082;52.374;4.946;2022-10-16T05:26:42;13.20;99.90
25092;DHT22;13082;52.374;4.946;2022-10-16T05:29:09;13.20;99.90
25092;DHT22;13082;52.374;4.946;2022-10-16T05:31:34;13.20;99.90
25092;DHT22;13082;52.374;4.946;2022-10-16T05:34:00;13.20;99.90
25092;DHT22;13082;52.374;4.946;2022-10-16T05:36:26;13.20;99.90
25092;DHT22;13082;52.374;4.946;2022-10-16T05:38:52;13.20;99.90
25092;DHT22;13082;52.374;4.946;2022-10-16T05:41:18;13.20;99.90
25092;DHT22;13082;52.374;4.946;2022-10-16T05:43:47;13.20;99.90
25092;DHT22;13082;52.374;4.946;2022-10-16T05:46:13;13.30;99.90
25092;DHT22;13082;52.374;4.946;2022-10-16T05:48:39;13.30;99.90
25092;DHT22;13082;52.374;4.946;2022-10-16T05:51:07;13.30;99.90
25092;DHT22;13082;52.374;4.946;2022-10-16T05:53:34;13.30;99.90
25092;DHT22;13082;52.374;4.946;2022-10-16T05:56:00;13.30;99.90
25092;DHT22;13082;52.374;4.946;2022-10-16T05:58:32;13.30;99.90
25092;DHT22;13082;52.374;4.946;2022-10-16T06:01:06;13.30;99.90
25092;DHT22;13082;52.374;4.946;2022-10-16T06:03:33;13.30;99.90
25092;DHT22;13082;52.374;4.946;2022-10-16T06:05:59;13.30;99.90
25092;DHT22;13082;52.374;4.946;2022-10-16T06:08:24;13.30;99.90
25092;DHT22;13082;52.374;4.946;2022-10-16T06:11:03;13.30;99.90
25092;DHT22;13082;52.374;4.946;2022-10-16T06:13:29;13.30;99.90
25092;DHT22;13082;52.374;4.946;2022-10-16T06:15:58;13.30;99.90
25092;DHT22;13082;52.374;4.946;2022-10-16T06:18:24;13.30;99.90
25092;DHT22;13082;52.374;4.946;2022-10-16T06:20:50;13.30;99.90
25092;DHT22;13082;52.374;4.946;2022-10-16T06:23:15;13.40;99.90
25092;DHT22;13082;52.374;4.946;2022-10-16T06:25:41;13.30;99.90
25092;DHT22;13082;52.374;4.946;2022-10-16T06:28:06;13.30;99.90
25092;DHT22;13082;52.374;4.946;2022-10-16T06:30:32;13.30;99.90
25092;DHT22;13082;52.374;4.946;2022-10-16T06:32:58;13.40;99.90
25092;DHT22;13082;52.374;4.946;2022-10-16T06:35:23;13.40;99.90
25092;DHT22;13082;52.374;4.946;2022-10-16T06:37:49;13.40;99.90
25092;DHT22;13082;52.374;4.946;2022-10-16T06:40:15;13.40;99.90
25092;DHT22;13082;52.374;4.946;2022-10-16T06:42:41;13.40;99.90
25092;DHT22;13082;52.374;4.946;2022-10-16T06:45:07;13.40;99.90
25092;DHT22;13082;52.374;4.946;2022-10-16T06:47:33;13.40;99.90
25092;DHT22;13082;52.374;4.946;2022-10-16T06:49:58;13.40;99.90
25092;DHT22;13082;52.374;4.946;2022-10-16T06:52:24;13.40;99.90
25092;DHT22;13082;52.374;4.946;2022-10-16T06:54:50;13.40;99.90
25092;DHT22;13082;52.374;4.946;2022-10-16T06:57:15;13.40;99.90
25092;DHT22;13082;52.374;4.946;2022-10-16T06:59:41;13.40;99.90
25092;DHT22;13082;52.374;4.946;2022-10-16T07:02:08;13.40;99.90
25092;DHT22;13082;52.374;4.946;2022-10-16T07:04:35;13.40;99.90
25092;DHT22;13082;52.374;4.946;2022-10-16T07:07:01;13.40;99.90
25092;DHT22;13082;52.374;4.946;2022-10-16T07:09:27;13.40;99.90
25092;DHT22;13082;52.374;4.946;2022-10-16T07:11:53;13.40;99.90
25092;DHT22;13082;52.374;4.946;2022-10-16T07:14:20;13.40;99.90
25092;DHT22;13082;52.374;4.946;2022-10-16T07:16:46;13.50;99.90
25092;DHT22;13082;52.374;4.946;2022-10-16T07:19:13;13.50;99.90
25092;DHT22;13082;52.374;4.946;2022-10-16T07:21:40;13.40;99.90
25092;DHT22;13082;52.374;4.946;2022-10-16T07:24:10;13.40;99.90
25092;DHT22;13082;52.374;4.946;2022-10-16T07:26:37;13.40;99.90
25092;DHT22;13082;52.374;4.946;2022-10-16T07:29:06;13.50;99.90
25092;DHT22;13082;52.374;4.946;2022-10-16T07:31:31;13.50;99.90
25092;DHT22;13082;52.374;4.946;2022-10-16T07:33:58;13.60;99.90
25092;DHT22;13082;52.374;4.946;2022-10-16T07:36:24;13.70;99.90
25092;DHT22;13082;52.374;4.946;2022-10-16T07:38:50;13.80;99.90
25092;DHT22;13082;52.374;4.946;2022-10-16T07:41:18;13.90;99.90
25092;DHT22;13082;52.374;4.946;2022-10-16T07:43:51;14.00;99.90
25092;DHT22;13082;52.374;4.946;2022-10-16T07:46:18;14.10;99.90
25092;DHT22;13082;52.374;4.946;2022-10-16T07:48:44;14.20;99.90
25092;DHT22;13082;52.374;4.946;2022-10-16T07:51:14;14.30;99.90
25092;DHT22;13082;52.374;4.946;2022-10-16T07:53:40;14.40;99.90
25092;DHT22;13082;52.374;4.946;2022-10-16T07:56:06;14.40;99.90
25092;DHT22;13082;52.374;4.946;2022-10-16T07:58:33;14.50;99.90
25092;DHT22;13082;52.374;4.946;2022-10-16T08:01:02;14.50;99.90
25092;DHT22;13082;52.374;4.946;2022-10-16T08:03:28;14.60;99.90
25092;DHT22;13082;52.374;4.946;2022-10-16T08:05:54;14.70;99.90
25092;DHT22;13082;52.374;4.946;2022-10-16T08:08:21;14.70;99.90
25092;DHT22;13082;52.374;4.946;2022-10-16T08:10:47;14.80;99.90
25092;DHT22;13082;52.374;4.946;2022-10-16T08:13:13;14.90;99.90
25092;DHT22;13082;52.374;4.946;2022-10-16T08:15:43;14.90;99.90
25092;DHT22;13082;52.374;4.946;2022-10-16T08:18:11;15.00;99.90
25092;DHT22;13082;52.374;4.946;2022-10-16T08:20:37;15.00;99.90
25092;DHT22;13082;52.374;4.946;2022-10-16T08:23:03;15.10;99.90
25092;DHT22;13082;52.374;4.946;2022-10-16T08:25:29;15.10;99.90
25092;DHT22;13082;52.374;4.946;2022-10-16T08:27:55;15.00;99.90
25092;DHT22;13082;52.374;4.946;2022-10-16T08:30:22;15.00;99.90
25092;DHT22;13082;52.374;4.946;2022-10-16T08:32:48;15.00;99.90
25092;DHT22;13082;52.374;4.946;2022-10-16T08:35:14;15.10;99.90
25092;DHT22;13082;52.374;4.946;2022-10-16T08:37:40;15.20;99.90
25092;DHT22;13082;52.374;4.946;2022-10-16T08:40:13;15.30;99.90
25092;DHT22;13082;52.374;4.946;2022-10-16T08:50:32;15.20;99.90
25092;DHT22;13082;52.374;4.946;2022-10-16T08:53:01;15.30;99.90
25092;DHT22;13082;52.374;4.946;2022-10-16T08:55:42;15.30;99.90
25092;DHT22;13082;52.374;4.946;2022-10-16T08:58:23;15.30;99.90
25092;DHT22;13082;52.374;4.946;2022-10-16T09:00:56;15.30;99.90
25092;DHT22;13082;52.374;4.946;2022-10-16T09:08:55;15.50;99.90
25092;DHT22;13082;52.374;4.946;2022-10-16T09:11:30;15.70;99.90
25092;DHT22;13082;52.374;4.946;2022-10-16T09:20:16;15.60;99.90
25092;DHT22;13082;52.374;4.946;2022-10-16T09:22:43;15.60;99.90
25092;DHT22;13082;52.374;4.946;2022-10-16T09:25:15;15.60;99.90
25092;DHT22;13082;52.374;4.946;2022-10-16T09:27:43;15.60;99.90
25092;DHT22;13082;52.374;4.946;2022-10-16T09:30:19;15.60;99.90
25092;DHT22;13082;52.374;4.946;2022-10-16T09:32:48;15.60;99.90
25092;DHT22;13082;52.374;4.946;2022-10-16T09:35:21;15.60;99.90
25092;DHT22;13082;52.374;4.946;2022-10-16T09:37:50;15.60;99.90
25092;DHT22;13082;52.374;4.946;2022-10-16T09:40:31;15.70;99.90
25092;DHT22;13082;52.374;4.946;2022-10-16T09:45:36;15.90;99.90
25092;DHT22;13082;52.374;4.946;2022-10-16T09:48:11;15.90;99.90
25092;DHT22;13082;52.374;4.946;2022-10-16T09:50:37;16.10;99.90
25092;DHT22;13082;52.374;4.946;2022-10-16T09:53:14;16.30;99.90
25092;DHT22;13082;52.374;4.946;2022-10-16T09:55:50;16.40;99.90
25092;DHT22;13082;52.374;4.946;2022-10-16T09:58:16;16.50;99.90
25092;DHT22;13082;52.374;4.946;2022-10-16T10:00:48;16.60;99.90
25092;DHT22;13082;52.374;4.946;2022-10-16T10:06:25;17.00;99.90
25092;DHT22;13082;52.374;4.946;2022-10-16T10:09:37;16.90;99.90
25092;DHT22;13082;52.374;4.946;2022-10-16T10:11:44;16.90;99.90
25092;DHT22;13082;52.374;4.946;2022-10-16T10:14:20;16.90;99.90
25092;DHT22;13082;52.374;4.946;2022-10-16T10:16:46;16.90;99.90
25092;DHT22;13082;52.374;4.946;2022-10-16T10:19:22;16.90;99.90
25092;DHT22;13082;52.374;4.946;2022-10-16T10:21:50;17.10;99.90
25092;DHT22;13082;52.374;4.946;2022-10-16T10:24:17;17.10;99.90
25092;DHT22;13082;52.374;4.946;2022-10-16T10:27:08;17.10;99.90
25092;DHT22;13082;52.374;4.946;2022-10-16T10:29:49;16.90;99.90
25092;DHT22;13082;52.374;4.946;2022-10-16T10:35:16;17.00;99.90
25092;DHT22;13082;52.374;4.946;2022-10-16T10:41:01;16.90;99.90
25092;DHT22;13082;52.374;4.946;2022-10-16T10:43:52;17.10;99.90
25092;DHT22;13082;52.374;4.946;2022-10-16T10:46:34;17.30;99.90
25092;DHT22;13082;52.374;4.946;2022-10-16T10:54:50;17.20;99.90
25092;DHT22;13082;52.374;4.946;2022-10-16T11:03:21;17.60;99.90
25092;DHT22;13082;52.374;4.946;2022-10-16T11:05:54;17.80;99.90
25092;DHT22;13082;52.374;4.946;2022-10-16T11:08:29;18.00;99.90
25092;DHT22;13082;52.374;4.946;2022-10-16T11:11:00;18.00;99.90
25092;DHT22;13082;52.374;4.946;2022-10-16T11:13:43;18.00;99.90
25092;DHT22;13082;52.374;4.946;2022-10-16T11:16:18;18.00;99.90
25092;DHT22;13082;52.374;4.946;2022-10-16T11:19:14;18.10;99.90
25092;DHT22;13082;52.374;4.946;2022-10-16T11:21:50;18.20;99.90
25092;DHT22;13082;52.374;4.946;2022-10-16T11:24:24;18.30;99.90
25092;DHT22;13082;52.374;4.946;2022-10-16T11:26:53;18.40;99.90
25092;DHT22;13082;52.374;4.946;2022-10-16T11:29:25;18.60;99.90
25092;DHT22;13082;52.374;4.946;2022-10-16T11:32:05;18.60;99.90
25092;DHT22;13082;52.374;4.946;2022-10-16T11:34:44;18.60;99.90
25092;DHT22;13082;52.374;4.946;2022-10-16T11:37:17;18.60;99.90
25092;DHT22;13082;52.374;4.946;2022-10-16T11:39:44;18.70;99.90
25092;DHT22;13082;52.374;4.946;2022-10-16T11:44:59;18.70;99.90
25092;DHT22;13082;52.374;4.946;2022-10-16T11:47:35;18.60;99.90
25092;DHT22;13082;52.374;4.946;2022-10-16T11:55:58;18.60;99.90
25092;DHT22;13082;52.374;4.946;2022-10-16T11:58:31;18.50;99.90
25092;DHT22;13082;52.374;4.946;2022-10-16T12:03:45;18.40;99.90
25092;DHT22;13082;52.374;4.946;2022-10-16T12:06:37;18.20;99.90
25092;DHT22;13082;52.374;4.946;2022-10-16T12:09:05;18.30;99.90
25092;DHT22;13082;52.374;4.946;2022-10-16T12:11:34;18.40;99.90
25092;DHT22;13082;52.374;4.946;2022-10-16T12:16:59;18.50;99.90
25092;DHT22;13082;52.374;4.946;2022-10-16T12:19:28;18.50;99.90
25092;DHT22;13082;52.374;4.946;2022-10-16T12:21:56;18.50;99.90
25092;DHT22;13082;52.374;4.946;2022-10-16T12:24:41;18.50;99.90
25092;DHT22;13082;52.374;4.946;2022-10-16T12:29:55;18.30;99.90
25092;DHT22;13082;52.374;4.946;2022-10-16T12:32:33;18.40;99.90
25092;DHT22;13082;52.374;4.946;2022-10-16T12:35:00;18.60;99.90
25092;DHT22;13082;52.374;4.946;2022-10-16T12:37:31;18.50;99.90
25092;DHT22;13082;52.374;4.946;2022-10-16T12:39:57;18.60;99.90
25092;DHT22;13082;52.374;4.946;2022-10-16T12:44:53;18.50;99.90
25092;DHT22;13082;52.374;4.946;2022-10-16T12:49:57;18.60;99.90
25092;DHT22;13082;52.374;4.946;2022-10-16T12:54:56;18.50;99.90
25092;DHT22;13082;52.374;4.946;2022-10-16T13:01:07;18.50;99.90
25092;DHT22;13082;52.374;4.946;2022-10-16T13:03:40;18.40;99.90
25092;DHT22;13082;52.374;4.946;2022-10-16T13:16:51;18.60;99.90
25092;DHT22;13082;52.374;4.946;2022-10-16T13:25:14;18.50;99.90
25092;DHT22;13082;52.374;4.946;2022-10-16T13:28:04;18.40;99.90
25092;DHT22;13082;52.374;4.946;2022-10-16T13:30:41;18.30;99.90
25092;DHT22;13082;52.374;4.946;2022-10-16T13:33:14;18.30;99.90
25092;DHT22;13082;52.374;4.946;2022-10-16T13:35:52;18.30;99.90
25092;DHT22;13082;52.374;4.946;2022-10-16T13:38:21;18.30;99.90
25092;DHT22;13082;52.374;4.946;2022-10-16T13:41:01;18.20;99.90
25092;DHT22;13082;52.374;4.946;2022-10-16T13:43:37;18.20;99.90
25092;DHT22;13082;52.374;4.946;2022-10-16T13:48:39;18.00;99.90
25092;DHT22;13082;52.374;4.946;2022-10-16T13:53:37;17.90;99.90
25092;DHT22;13082;52.374;4.946;2022-10-16T13:56:05;17.80;99.90
25092;DHT22;13082;52.374;4.946;2022-10-16T13:58:31;17.80;99.90
25092;DHT22;13082;52.374;4.946;2022-10-16T14:01:02;17.80;99.90
25092;DHT22;13082;52.374;4.946;2022-10-16T14:03:29;17.80;99.90
25092;DHT22;13082;52.374;4.946;2022-10-16T14:06:01;17.80;99.90
25092;DHT22;13082;52.374;4.946;2022-10-16T14:08:29;17.70;99.90
25092;DHT22;13082;52.374;4.946;2022-10-16T14:11:00;17.70;99.90
25092;DHT22;13082;52.374;4.946;2022-10-16T14:13:32;17.60;99.90
25092;DHT22;13082;52.374;4.946;2022-10-16T14:16:04;17.50;99.90
25092;DHT22;13082;52.374;4.946;2022-10-16T14:18:31;17.50;99.90
25092;DHT22;13082;52.374;4.946;2022-10-16T14:21:03;17.50;99.90
25092;DHT22;13082;52.374;4.946;2022-10-16T14:23:31;17.40;99.90
25092;DHT22;13082;52.374;4.946;2022-10-16T14:26:12;17.40;99.90
25092;DHT22;13082;52.374;4.946;2022-10-16T14:28:39;17.40;99.90
25092;DHT22;13082;52.374;4.946;2022-10-16T14:31:30;17.40;99.90
25092;DHT22;13082;52.374;4.946;2022-10-16T14:33:56;17.40;99.90
25092;DHT22;13082;52.374;4.946;2022-10-16T14:36:22;17.40;99.90
25092;DHT22;13082;52.374;4.946;2022-10-16T14:41:28;17.30;99.90
25092;DHT22;13082;52.374;4.946;2022-10-16T14:44:04;17.30;99.90
25092;DHT22;13082;52.374;4.946;2022-10-16T14:49:05;17.20;99.90
25092;DHT22;13082;52.374;4.946;2022-10-16T14:51:39;17.20;99.90
25092;DHT22;13082;52.374;4.946;2022-10-16T14:54:11;17.20;99.90
25092;DHT22;13082;52.374;4.946;2022-10-16T14:56:54;17.20;99.90
25092;DHT22;13082;52.374;4.946;2022-10-16T14:59:39;17.20;99.90
25092;DHT22;13082;52.374;4.946;2022-10-16T15:02:31;17.20;99.90
25092;DHT22;13082;52.374;4.946;2022-10-16T15:04:57;17.10;99.90
25092;DHT22;13082;52.374;4.946;2022-10-16T15:07:24;17.10;99.90
25092;DHT22;13082;52.374;4.946;2022-10-16T15:09:50;17.10;99.90
25092;DHT22;13082;52.374;4.946;2022-10-16T15:12:16;17.10;99.90
25092;DHT22;13082;52.374;4.946;2022-10-16T15:14:43;17.10;99.90
25092;DHT22;13082;52.374;4.946;2022-10-16T15:17:10;17.00;99.90
25092;DHT22;13082;52.374;4.946;2022-10-16T15:19:35;17.00;99.90
25092;DHT22;13082;52.374;4.946;2022-10-16T15:22:01;16.90;99.90
25092;DHT22;13082;52.374;4.946;2022-10-16T15:24:26;16.90;99.90
25092;DHT22;13082;52.374;4.946;2022-10-16T15:26:52;17.00;99.90
25092;DHT22;13082;52.374;4.946;2022-10-16T15:29:18;16.90;99.90
25092;DHT22;13082;52.374;4.946;2022-10-16T15:31:43;16.90;99.90
25092;DHT22;13082;52.374;4.946;2022-10-16T15:34:09;16.80;99.90
25092;DHT22;13082;52.374;4.946;2022-10-16T15:36:37;16.80;99.90
25092;DHT22;13082;52.374;4.946;2022-10-16T15:39:13;16.80;99.90
25092;DHT22;13082;52.374;4.946;2022-10-16T15:41:40;16.80;99.90
25092;DHT22;13082;52.374;4.946;2022-10-16T15:44:06;16.70;99.90
25092;DHT22;13082;52.374;4.946;2022-10-16T15:46:32;16.70;99.90
25092;DHT22;13082;52.374;4.946;2022-10-16T15:48:59;16.70;99.90
25092;DHT22;13082;52.374;4.946;2022-10-16T15:51:26;16.70;99.90
25092;DHT22;13082;52.374;4.946;2022-10-16T15:53:58;16.70;99.90
25092;DHT22;13082;52.374;4.946;2022-10-16T15:56:24;16.70;99.90
25092;DHT22;13082;52.374;4.946;2022-10-16T15:58:51;16.60;99.90
25092;DHT22;13082;52.374;4.946;2022-10-16T16:01:17;16.50;99.90
25092;DHT22;13082;52.374;4.946;2022-10-16T16:03:43;16.50;99.90
25092;DHT22;13082;52.374;4.946;2022-10-16T16:06:11;16.50;99.90
25092;DHT22;13082;52.374;4.946;2022-10-16T16:08:37;16.50;99.90
25092;DHT22;13082;52.374;4.946;2022-10-16T16:11:08;16.50;99.90
25092;DHT22;13082;52.374;4.946;2022-10-16T16:13:34;16.50;99.90
25092;DHT22;13082;52.374;4.946;2022-10-16T16:16:01;16.40;99.90
25092;DHT22;13082;52.374;4.946;2022-10-16T16:18:27;16.40;99.90
25092;DHT22;13082;52.374;4.946;2022-10-16T16:20:53;16.50;99.90
25092;DHT22;13082;52.374;4.946;2022-10-16T16:23:20;16.50;99.90
25092;DHT22;13082;52.374;4.946;2022-10-16T16:25:53;16.50;99.90
25092;DHT22;13082;52.374;4.946;2022-10-16T16:28:27;16.40;99.90
25092;DHT22;13082;52.374;4.946;2022-10-16T16:30:52;16.40;99.90
25092;DHT22;13082;52.374;4.946;2022-10-16T16:33:18;16.40;99.90
25092;DHT22;13082;52.374;4.946;2022-10-16T16:35:43;16.40;99.90
25092;DHT22;13082;52.374;4.946;2022-10-16T16:38:09;16.30;99.90
25092;DHT22;13082;52.374;4.946;2022-10-16T16:40:34;16.30;99.90
25092;DHT22;13082;52.374;4.946;2022-10-16T16:43:00;16.30;99.90
25092;DHT22;13082;52.374;4.946;2022-10-16T16:45:25;16.30;99.90
25092;DHT22;13082;52.374;4.946;2022-10-16T16:47:51;16.30;99.90
25092;DHT22;13082;52.374;4.946;2022-10-16T16:50:17;16.30;99.90
25092;DHT22;13082;52.374;4.946;2022-10-16T16:52:42;16.40;99.90
25092;DHT22;13082;52.374;4.946;2022-10-16T16:55:08;16.40;99.90
25092;DHT22;13082;52.374;4.946;2022-10-16T16:57:34;16.30;99.90
25092;DHT22;13082;52.374;4.946;2022-10-16T16:59:59;16.30;99.90
25092;DHT22;13082;52.374;4.946;2022-10-16T17:02:25;16.30;99.90
25092;DHT22;13082;52.374;4.946;2022-10-16T17:04:50;16.30;99.90
25092;DHT22;13082;52.374;4.946;2022-10-16T17:07:16;16.30;99.90
25092;DHT22;13082;52.374;4.946;2022-10-16T17:09:42;16.30;99.90
25092;DHT22;13082;52.374;4.946;2022-10-16T17:12:07;16.30;99.90
25092;DHT22;13082;52.374;4.946;2022-10-16T17:14:33;16.30;99.90
25092;DHT22;13082;52.374;4.946;2022-10-16T17:16:59;16.20;99.90
25092;DHT22;13082;52.374;4.946;2022-10-16T17:19:24;16.20;99.90
25092;DHT22;13082;52.374;4.946;2022-10-16T17:21:50;16.20;99.90
25092;DHT22;13082;52.374;4.946;2022-10-16T17:24:17;16.30;99.90
25092;DHT22;13082;52.374;4.946;2022-10-16T17:26:44;16.20;99.90
25092;DHT22;13082;52.374;4.946;2022-10-16T17:29:14;16.20;99.90
25092;DHT22;13082;52.374;4.946;2022-10-16T17:31:40;16.20;99.90
25092;DHT22;13082;52.374;4.946;2022-10-16T17:34:07;16.20;99.90